Flight Track Log - Related Links

Times and Time Zones

All times are in EDT time to prevent confusion due to time zone crossing. See the COM2930 flight status page for this flight to view local times or setup timezone preferences in your user account.

Time Position Orientation Groundspeed Altitude Reporting Facility
EDT Latitude Longitude Course Direction KTS MPH feet Rate Location/Type
Sun 06:10:36 PM 42.2006 -83.3731 223° Southwest 166 191 1,300  Level FAA TRACON SMA TRACON (SMA)
Sun 06:10:56 PM 42.1878 -83.3892 225° Southwest 178 205 1,900 1,650 Climbing FAA TRACON SMA TRACON (SMA)
Sun 06:11:16 PM 42.1750 -83.4061 225° Southwest 205 236 2,400 2,100 Climbing FAA TRACON SMA TRACON (SMA)
Sun 06:11:36 PM 42.1600 -83.4261 223° Southwest 218 251 3,300 2,634 Climbing FAA TRACON SMA TRACON (SMA)
Sun 06:11:57 PM 42.1475 -83.4417 223° Southwest 213 245 4,200 2,634 Climbing FAA TRACON SMA TRACON (SMA)
Sun 06:12:17 PM 42.1314 -83.4617 238° Southwest 217 250 5,100 2,250 Climbing FAA TRACON SMA TRACON (SMA)
Sun 06:12:37 PM 42.1211 -83.4842 269° West 233 268 5,700 1,650 Climbing FAA TRACON SMA TRACON (SMA)
Sun 06:12:57 PM 42.1208 -83.5081 294° West 245 282 6,200 2,100 Climbing FAA TRACON SMA TRACON (SMA)
Sun 06:13:17 PM 42.1325 -83.5442 301° West 259 298 7,100 2,400 Climbing FAA TRACON SMA TRACON (SMA)
Sun 06:13:37 PM 42.1442 -83.5706 302° West 267 307 7,800 2,100 Climbing FAA TRACON SMA TRACON (SMA)
Sun 06:13:57 PM 42.1564 -83.5967 299° West 267 307 8,500 2,550 Climbing FAA TRACON SMA TRACON (SMA)
Sun 06:14:17 PM 42.1706 -83.6311 301° West 271 312 9,500 2,462 Climbing FAA TRACON SMA TRACON (SMA)
Sun 06:14:36 PM 42.1822 -83.6575 302° West 268 308 10,100 1,846 Climbing FAA TRACON SMA TRACON (SMA)
Sun 06:14:56 PM 42.1939 -83.6828 301° West 270 311 10,700 1,650 Climbing FAA TRACON SMA TRACON (SMA)
Sun 06:15:16 PM 42.2078 -83.7136 302° West 284 327 11,200 1,500 Climbing FAA TRACON SMA TRACON (SMA)
Sun 06:15:36 PM 42.2244 -83.7497 301° West 297 342 11,700 1,050 Climbing FAA TRACON SMA TRACON (SMA)
Sun 06:15:56 PM 42.2378 -83.7803 302° West 305 351 11,900 439 Climbing FAA TRACON SMA TRACON (SMA)
Sun 06:16:17 PM 42.2522 -83.8111 302° West 312 359 12,000 300 Climbing FAA TRACON SMA TRACON (SMA)
Sun 06:16:36 PM 42.2694 -83.8481 301° West 313 360 12,100 154 Climbing FAA TRACON SMA TRACON (SMA)
Sun 06:16:56 PM 42.2836 -83.8806 301° West 311 358 12,100  Level FAA TRACON SMA TRACON (SMA)
Sun 06:17:16 PM 42.2972 -83.9108 302° West 308 354 12,100  Level FAA TRACON SMA TRACON (SMA)
Sun 06:17:36 PM 42.3144 -83.9481 302° West 305 351 12,100  Level FAA TRACON SMA TRACON (SMA)
Sun 06:17:56 PM 42.3283 -83.9781 302° West 305 351 12,100 -150 Level FAA TRACON SMA TRACON (SMA)
Sun 06:18:16 PM 42.3444 -84.0131 301° West 305 351 12,000 -167 Descending FAA TRACON SMA TRACON (SMA)
Sun 06:18:32 PM 42.3522 -84.0308 302° West 313 360 12,000 74 Level Cleveland Center
Sun 06:19:37 PM 42.4058 -84.1475 301° West 315 362 12,100 71 Climbing FAA TRACON SMA TRACON (SMA)
Sun 06:19:57 PM 42.4197 -84.1783 286° West 314 361 12,100  Level FAA TRACON SMA TRACON (SMA)
Sun 06:20:17 PM 42.4272 -84.2142 295° West 319 367 12,100  Level FAA TRACON SMA TRACON (SMA)
Sun 06:20:37 PM 42.4414 -84.2553 296° West 318 366 12,100  Level FAA TRACON SMA TRACON (SMA)
Sun 06:20:57 PM 42.4533 -84.2878 297° West 327 376 12,100  Level FAA TRACON SMA TRACON (SMA)
Sun 06:21:17 PM 42.4686 -84.3289 296° West 319 367 12,100  Level FAA TRACON SMA TRACON (SMA)
Sun 06:21:37 PM 42.4806 -84.3619 295° West 317 365 12,100 -154 Level FAA TRACON SMA TRACON (SMA)
Sun 06:21:56 PM 42.4919 -84.3950 295° West 316 364 12,000 -615 Descending FAA TRACON SMA TRACON (SMA)
Sun 06:22:16 PM 42.5033 -84.4283 296° West 318 366 11,700 -1,050 Descending FAA TRACON SMA TRACON (SMA)
Sun 06:22:36 PM 42.5183 -84.4706 292° West 320 368 11,300 -600 Descending FAA TRACON SMA TRACON (SMA)
Sun 06:22:56 PM 42.5208 -84.4792 295° West 320 368 11,300 -857 Level FAA TRACON SMA TRACON (SMA)
Sun 06:23:32 PM 42.5517 -84.5689 300° West 314 361 10,500 -1,379 Descending Cleveland Center
Sun 06:24:23 PM 42.5806 -84.6378 294° West 298 343 9,300 -1,327 Descending Chicago Center
Sun 06:25:25 PM 42.6114 -84.7306 300° West 275 316 8,000 -1,152 Descending Chicago Center
Sun 06:26:28 PM 42.6447 -84.8081 302° West 251 289 6,900 -1,095 Descending Chicago Center
Sun 06:27:31 PM 42.6906 -84.9097 301° West 258 297 5,700 -1,248 Descending Chicago Center
Sun 06:28:33 PM 42.7272 -84.9942 301° West 261 300 4,300 -1,296 Descending Chicago Center
Sun 06:29:36 PM 42.7614 -85.0719 301° West 249 287 3,000 -624 Descending Chicago Center
Sun 06:30:38 PM 42.7933 -85.1433 302° West 233 268 3,000 -96 Level Chicago Center
Sun 06:31:41 PM 42.8286 -85.2214 304° West 209 241 2,800 -144 Descending Chicago Center
Sun 06:32:43 PM 42.8583 -85.2819 306° West 200 230 2,700 -48 Descending Chicago Center
Sun 06:33:46 PM 42.8847 -85.3319 282° West 181 208 2,700 -95 Level Chicago Center
Sun 06:34:49 PM 42.8939 -85.3900 261° West 169 194 2,500 -480 Descending Chicago Center
Sun 06:35:51 PM 42.8869 -85.4483 262° West 159 183 1,700 -720 Descending Chicago Center
Sun 06:36:54 PM 42.8819 -85.4994 266° West 147 169 1,000 -667 Descending Chicago Center
Sun 06:44:00 PM 42.8452 -86.2255 266° West  Level Estimated

Login

Don't have an account? Register now (free) for customized features, flight alerts, and more!